createdAt,value
2018-02-20T00:00:12.771Z,58.13
2018-02-20T00:02:40.374Z,72.62
2018-02-20T00:05:07.964Z,57.90
2018-02-20T00:07:35.508Z,57.78
2018-02-20T00:10:03.064Z,57.10
2018-02-20T00:12:30.702Z,62.35
2018-02-20T00:14:58.270Z,53.53
2018-02-20T00:17:25.846Z,59.63
2018-02-20T00:19:53.421Z,55.45
2018-02-20T00:22:20.984Z,58.08
2018-02-20T00:24:48.545Z,57.03
2018-02-20T00:27:16.110Z,58.03
2018-02-20T00:29:43.768Z,50.47
2018-02-20T00:32:12.115Z,57.33
2018-02-20T00:34:39.641Z,60.00
2018-02-20T00:37:07.209Z,53.30
2018-02-20T00:39:34.754Z,52.38
2018-02-20T00:42:02.322Z,55.65
2018-02-20T00:44:29.860Z,56.03
2018-02-20T00:46:57.434Z,49.47
2018-02-20T00:49:24.990Z,58.47
2018-02-20T00:51:52.540Z,54.72
2018-02-20T00:54:20.891Z,60.97
2018-02-20T00:56:48.425Z,59.22
2018-02-20T00:59:15.957Z,58.35
2018-02-20T01:01:43.558Z,58.28
2018-02-20T01:04:11.100Z,52.42
2018-02-20T01:06:38.627Z,56.37
2018-02-20T01:09:06.155Z,63.75
2018-02-20T01:11:33.716Z,61.83
2018-02-20T01:14:01.264Z,61.78
2018-02-20T01:16:28.841Z,59.85
2018-02-20T01:18:56.427Z,55.85
2018-02-20T01:21:24.089Z,61.97
2018-02-20T01:23:51.786Z,64.45
2018-02-20T01:26:19.445Z,68.55
2018-02-20T01:28:47.005Z,51.83
2018-02-20T01:31:14.567Z,63.67
2018-02-20T01:33:42.254Z,51.58
2018-02-20T01:36:10.661Z,58.70
2018-02-20T01:38:38.262Z,54.42
2018-02-20T01:41:05.821Z,62.72
2018-02-20T01:43:33.344Z,59.53
2018-02-20T01:46:00.903Z,63.90
2018-02-20T01:48:29.181Z,56.13
2018-02-20T01:51:08.347Z,50.65
2018-02-20T01:53:35.870Z,52.25
2018-02-20T01:56:04.217Z,46.50
2018-02-20T01:58:31.776Z,52.97
2018-02-20T02:00:59.335Z,59.53
2018-02-20T02:03:26.922Z,54.10
2018-02-20T02:05:54.597Z,54.03
2018-02-20T02:08:22.924Z,47.05
2018-02-20T02:10:50.509Z,46.67
2018-02-20T02:13:18.406Z,58.92
2018-02-20T02:15:46.001Z,52.00
2018-02-20T02:18:13.835Z,54.25
2018-02-20T02:20:42.167Z,60.67
2018-02-20T02:23:09.726Z,57.42
2018-02-20T02:25:37.295Z,58.10
2018-02-20T02:28:05.634Z,49.08
2018-02-20T02:30:33.234Z,51.45
2018-02-20T02:33:01.584Z,62.28
2018-02-20T02:35:29.153Z,47.83
2018-02-20T02:37:56.734Z,58.40
2018-02-20T02:40:24.319Z,58.05
2018-02-20T02:42:52.680Z,57.00
2018-02-20T02:45:21.017Z,52.75
2018-02-20T02:47:48.623Z,55.60
2018-02-20T02:50:16.215Z,55.17
2018-02-20T02:52:43.789Z,48.28
2018-02-20T02:55:11.401Z,69.18
2018-02-20T02:57:39.717Z,47.88
2018-02-20T03:00:07.294Z,46.53
2018-02-20T03:02:34.896Z,54.17
2018-02-20T03:05:03.258Z,45.28
2018-02-20T03:07:30.836Z,51.90
2018-02-20T03:09:59.165Z,58.00
2018-02-20T03:12:26.749Z,47.62
2018-02-20T03:14:54.337Z,52.25
2018-02-20T03:17:21.897Z,50.55
2018-02-20T03:19:49.588Z,52.38
2018-02-20T03:22:17.209Z,54.97
2018-02-20T03:24:44.776Z,50.80
2018-02-20T03:27:12.312Z,48.13
2018-02-20T03:29:39.861Z,58.53
2018-02-20T03:32:07.462Z,62.53
2018-02-20T03:34:35.805Z,59.33
2018-02-20T03:37:03.380Z,57.00
2018-02-20T03:39:31.004Z,52.17
2018-02-20T03:41:58.622Z,45.50
2018-02-20T03:44:26.942Z,57.10
2018-02-20T03:46:54.619Z,56.58
2018-02-20T03:49:22.213Z,53.13
2018-02-20T03:51:49.774Z,52.17
2018-02-20T03:54:17.982Z,58.55
2018-02-20T03:56:45.579Z,58.75
2018-02-20T03:59:13.166Z,56.97
2018-02-20T04:01:40.726Z,60.08
2018-02-20T04:04:08.361Z,58.70
2018-02-20T04:06:35.934Z,55.42
2018-02-20T04:09:03.540Z,50.88
2018-02-20T04:11:31.073Z,60.00
2018-02-20T04:13:58.690Z,47.95
2018-02-20T04:16:26.232Z,56.28
2018-02-20T04:18:53.772Z,52.83
2018-02-20T04:21:22.111Z,51.05
2018-02-20T04:23:49.658Z,50.75
2018-02-20T04:26:17.229Z,44.88
2018-02-20T04:28:44.814Z,55.55
2018-02-20T04:31:13.161Z,61.00
2018-02-20T04:33:40.757Z,61.72
2018-02-20T04:36:09.081Z,53.63
2018-02-20T04:38:36.630Z,51.17
2018-02-20T04:41:04.199Z,54.00
2018-02-20T04:43:32.135Z,52.88
2018-02-20T04:45:59.741Z,60.22
2018-02-20T04:48:27.318Z,59.75
2018-02-20T04:50:54.890Z,45.22
2018-02-20T04:53:22.420Z,51.05
2018-02-20T04:55:50.031Z,54.90
2018-02-20T04:58:17.616Z,53.58
2018-02-20T05:00:45.202Z,49.75
2018-02-20T05:03:12.879Z,55.90
2018-02-20T05:05:41.558Z,58.33
2018-02-20T05:08:09.154Z,51.75
2018-02-20T05:10:36.727Z,59.65
2018-02-20T05:13:04.307Z,68.12
2018-02-20T05:15:31.923Z,58.30
2018-02-20T05:18:00.320Z,60.28
2018-02-20T05:20:28.644Z,53.92
2018-02-20T05:22:56.226Z,52.72
2018-02-20T05:25:23.827Z,52.25
2018-02-20T05:27:57.048Z,48.70
2018-02-20T05:30:24.641Z,51.83
2018-02-20T05:32:52.228Z,60.22
2018-02-20T05:35:19.800Z,63.28
2018-02-20T05:37:48.035Z,49.47
2018-02-20T05:40:15.628Z,58.47
2018-02-20T05:42:43.179Z,59.28
2018-02-20T05:45:10.788Z,58.60
2018-02-20T05:47:38.315Z,51.92
2018-02-20T05:50:06.470Z,51.30
2018-02-20T05:52:34.016Z,50.03
2018-02-20T05:55:01.589Z,50.45
2018-02-20T05:57:30.082Z,55.50
2018-02-20T05:59:58.493Z,70.62
2018-02-20T06:02:26.141Z,59.60
2018-02-20T06:04:53.705Z,61.28
2018-02-20T06:07:22.174Z,61.25
2018-02-20T06:09:50.523Z,51.13
2018-02-20T06:12:18.093Z,54.30
2018-02-20T06:14:46.430Z,61.28
2018-02-20T06:17:14.002Z,54.20
2018-02-20T06:19:41.570Z,54.83
2018-02-20T06:22:09.177Z,64.90
2018-02-20T06:24:36.723Z,58.15
2018-02-20T06:27:05.369Z,51.15
2018-02-20T06:29:33.158Z,56.17
2018-02-20T06:32:00.750Z,55.88
2018-02-20T06:34:28.299Z,57.78
2018-02-20T06:36:56.716Z,59.67
2018-02-20T06:39:24.348Z,56.13
2018-02-20T06:41:51.924Z,63.40
2018-02-20T06:44:20.215Z,71.80
2018-02-20T06:46:47.802Z,54.97
2018-02-20T06:49:15.368Z,59.30
2018-02-20T06:51:42.938Z,53.25
2018-02-20T06:54:10.561Z,60.85
2018-02-20T06:56:38.233Z,65.47
2018-02-20T06:59:05.816Z,59.75
2018-02-20T07:01:33.415Z,55.25
2018-02-20T07:04:01.948Z,61.78
2018-02-20T07:06:29.521Z,52.88
2018-02-20T07:08:58.041Z,55.35
2018-02-20T07:11:25.662Z,70.62
2018-02-20T07:13:53.265Z,56.78
2018-02-20T07:16:20.849Z,61.60
2018-02-20T07:18:48.968Z,58.72
2018-02-20T07:21:16.653Z,52.20
2018-02-20T07:23:44.248Z,67.90
2018-02-20T07:26:12.688Z,56.58
2018-02-20T07:28:40.395Z,63.72
2018-02-20T07:31:07.943Z,56.75
2018-02-20T07:33:35.520Z,60.80
2018-02-20T07:36:03.076Z,59.40
2018-02-20T07:38:30.695Z,55.60
2018-02-20T07:40:58.260Z,58.92
2018-02-20T07:43:25.785Z,55.28
2018-02-20T07:45:53.406Z,57.33
2018-02-20T07:48:21.004Z,52.25
2018-02-20T07:50:48.589Z,52.53
2018-02-20T07:53:17.147Z,75.60
2018-02-20T07:55:44.877Z,56.58
2018-02-20T07:58:13.156Z,54.92
2018-02-20T08:00:40.758Z,61.95
2018-02-20T08:03:08.351Z,60.10
2018-02-20T08:05:35.912Z,57.70
2018-02-20T08:08:03.490Z,55.47
2018-02-20T08:10:31.111Z,54.38
2018-02-20T08:12:59.472Z,53.10
2018-02-20T08:15:27.058Z,58.38
2018-02-20T08:17:54.644Z,49.55
2018-02-20T08:20:22.236Z,61.22
2018-02-20T08:22:49.820Z,50.15
2018-02-20T08:25:17.600Z,71.07
2018-02-20T08:27:45.217Z,68.57
2018-02-20T08:30:12.818Z,66.80
2018-02-20T08:32:40.431Z,53.42
2018-02-20T08:35:08.001Z,59.50
2018-02-20T08:37:35.563Z,57.25
2018-02-20T08:40:03.116Z,56.55
2018-02-20T08:42:30.705Z,59.85
2018-02-20T08:44:58.514Z,56.13
2018-02-20T08:47:26.174Z,55.38
2018-02-20T08:49:54.408Z,59.38
2018-02-20T08:52:21.997Z,51.35
2018-02-20T08:54:49.600Z,68.78
2018-02-20T08:57:17.308Z,56.30
2018-02-20T08:59:45.025Z,61.28
2018-02-20T09:02:12.634Z,52.08
2018-02-20T09:04:40.305Z,59.15
2018-02-20T09:07:08.682Z,55.67
2018-02-20T09:09:36.388Z,59.38
2018-02-20T09:12:04.031Z,52.00
2018-02-20T09:14:31.574Z,57.65
2018-02-20T09:16:59.155Z,58.15
2018-02-20T09:19:26.832Z,59.15
2018-02-20T09:21:54.401Z,65.40
2018-02-20T09:24:21.959Z,46.63
2018-02-20T09:26:49.561Z,61.05
2018-02-20T09:29:17.202Z,56.63
2018-02-20T09:31:44.792Z,50.33
2018-02-20T09:34:12.357Z,51.05
2018-02-20T09:36:41.337Z,55.55
2018-02-20T09:39:08.858Z,53.85
2018-02-20T09:41:36.452Z,64.15
2018-02-20T09:44:04.012Z,57.50
2018-02-20T09:46:31.584Z,61.20
2018-02-20T09:48:59.914Z,51.47
2018-02-20T09:51:27.531Z,52.72
2018-02-20T09:53:55.139Z,56.88
2018-02-20T09:56:22.760Z,59.95
2018-02-20T09:58:50.432Z,51.67
2018-02-20T10:01:18.099Z,56.25
2018-02-20T10:03:45.689Z,55.05
2018-02-20T10:06:13.284Z,52.62
2018-02-20T10:08:40.864Z,59.47
2018-02-20T10:11:08.430Z,64.28
2018-02-20T10:13:35.992Z,86.03
2018-02-20T10:16:03.650Z,62.15
2018-02-20T10:18:31.313Z,51.92
2018-02-20T10:20:58.982Z,49.20
2018-02-20T10:23:26.618Z,60.72
2018-02-20T10:25:54.227Z,55.53
2018-02-20T10:28:21.963Z,53.30
2018-02-20T10:30:49.519Z,56.50
2018-02-20T10:33:17.474Z,58.67
2018-02-20T10:35:45.188Z,63.25
2018-02-20T10:38:12.772Z,59.92
2018-02-20T10:40:40.477Z,61.40
2018-02-20T10:43:08.029Z,50.58
2018-02-20T10:45:35.577Z,60.45
2018-02-20T10:48:03.167Z,59.05
2018-02-20T10:50:30.715Z,54.60
2018-02-20T10:52:58.283Z,48.75
2018-02-20T10:55:25.846Z,53.90
2018-02-20T10:57:53.477Z,54.00
2018-02-20T11:00:21.052Z,56.65
2018-02-20T11:02:48.728Z,47.95
2018-02-20T11:05:16.247Z,72.62
2018-02-20T11:07:44.622Z,48.15
2018-02-20T11:10:12.230Z,54.00
2018-02-20T11:12:40.343Z,51.40
2018-02-20T11:15:07.909Z,56.15
2018-02-20T11:17:36.595Z,54.47
2018-02-20T11:20:05.073Z,44.10
2018-02-20T11:22:32.683Z,43.20
2018-02-20T11:25:00.299Z,44.70
2018-02-20T11:27:27.821Z,48.15
2018-02-20T11:30:01.322Z,45.33
2018-02-20T11:32:28.955Z,53.28
2018-02-20T11:34:56.602Z,51.90
2018-02-20T11:37:24.234Z,58.08
2018-02-20T11:39:52.546Z,51.17
2018-02-20T11:42:20.336Z,46.65
2018-02-20T11:44:47.880Z,74.22
2018-02-20T11:47:15.466Z,48.40
2018-02-20T11:49:43.060Z,47.00
2018-02-20T11:52:12.306Z,48.47
2018-02-20T11:54:39.940Z,49.78
2018-02-20T11:57:07.499Z,47.60
2018-02-20T11:59:35.293Z,45.08
2018-02-20T12:02:02.824Z,37.00
2018-02-20T12:04:30.467Z,37.20
2018-02-20T12:06:59.580Z,41.67
2018-02-20T12:09:27.235Z,40.22
2018-02-20T12:11:54.827Z,48.50
2018-02-20T12:14:22.479Z,35.30
2018-02-20T12:16:50.178Z,38.42
2018-02-20T12:19:17.753Z,45.10
2018-02-20T12:21:45.531Z,52.45
2018-02-20T12:24:14.096Z,35.33
2018-02-20T12:26:42.484Z,41.13
2018-02-20T12:29:10.112Z,37.03
2018-02-20T12:31:37.733Z,39.75
2018-02-20T12:34:05.387Z,46.17
2018-02-20T12:36:32.937Z,37.33
2018-02-20T12:39:00.505Z,39.58
2018-02-20T12:41:28.044Z,38.67
2018-02-20T12:43:55.647Z,36.67
2018-02-20T12:46:23.260Z,38.22
2018-02-20T12:48:51.733Z,38.80
2018-02-20T12:51:20.086Z,43.50
2018-02-20T12:53:48.679Z,36.35
2018-02-20T12:56:16.281Z,40.78
2018-02-20T12:58:43.988Z,39.22
2018-02-20T13:01:11.631Z,42.95
2018-02-20T13:03:39.199Z,65.15
2018-02-20T13:06:07.444Z,40.97
2018-02-20T13:08:35.330Z,37.88
2018-02-20T13:11:03.117Z,40.75
2018-02-20T13:13:30.779Z,38.95
2018-02-20T13:15:58.326Z,39.58
2018-02-20T13:18:25.929Z,47.08
2018-02-20T13:20:53.539Z,37.63
2018-02-20T13:23:21.146Z,41.10
2018-02-20T13:25:48.770Z,49.28
2018-02-20T13:28:16.328Z,41.55
2018-02-20T13:30:43.898Z,39.88
2018-02-20T13:33:11.416Z,45.85
2018-02-20T13:35:39.733Z,46.00
2018-02-20T13:38:07.325Z,38.67
2018-02-20T13:40:34.870Z,38.05
2018-02-20T13:43:02.431Z,52.70
2018-02-20T13:45:29.965Z,35.65
2018-02-20T13:47:57.546Z,30.77
2018-02-20T13:50:25.145Z,32.25
2018-02-20T13:52:53.439Z,33.22
2018-02-20T13:55:21.082Z,36.58
2018-02-20T13:57:48.617Z,32.53
2018-02-20T14:00:16.210Z,44.70
2018-02-20T14:02:44.520Z,53.60
2018-02-20T14:05:12.122Z,38.75
2018-02-20T14:07:39.773Z,49.58
2018-02-20T14:10:07.370Z,36.22
2018-02-20T14:12:35.677Z,33.65
2018-02-20T14:15:03.218Z,39.63
2018-02-20T14:17:30.777Z,40.60
2018-02-20T14:19:59.135Z,33.60
2018-02-20T14:25:01.906Z,39.20
2018-02-20T14:27:29.492Z,36.20
2018-02-20T14:29:57.818Z,42.33
2018-02-20T14:32:25.537Z,39.33
2018-02-20T14:34:53.192Z,30.77
2018-02-20T14:37:20.747Z,34.75
2018-02-20T14:39:48.339Z,37.00
2018-02-20T14:42:15.883Z,36.83
2018-02-20T14:44:44.210Z,36.22
2018-02-20T14:47:11.752Z,40.90
2018-02-20T14:49:39.297Z,43.50
2018-02-20T14:52:06.835Z,38.97
2018-02-20T14:54:34.446Z,39.88
2018-02-20T14:57:03.168Z,39.92
2018-02-20T14:59:30.803Z,42.30
2018-02-20T15:01:58.454Z,36.10
2018-02-20T15:04:25.982Z,32.03
2018-02-20T15:06:54.530Z,37.45
2018-02-20T15:09:22.083Z,33.50
2018-02-20T15:11:49.815Z,36.65
2018-02-20T15:14:17.454Z,41.92
2018-02-20T15:16:45.707Z,36.13
2018-02-20T15:19:14.065Z,39.00
2018-02-20T15:21:41.596Z,39.00
2018-02-20T15:24:09.156Z,30.37
2018-02-20T15:26:36.764Z,48.13
2018-02-20T15:29:05.123Z,38.20
2018-02-20T15:31:32.730Z,33.25
2018-02-20T15:34:00.268Z,40.00
2018-02-20T15:36:28.616Z,35.78
2018-02-20T15:38:58.651Z,48.90
2018-02-20T15:41:26.981Z,45.72
2018-02-20T15:43:54.689Z,44.65
2018-02-20T15:46:23.030Z,35.03
2018-02-20T15:48:51.407Z,33.55
2018-02-20T15:51:20.272Z,31.33
2018-02-20T15:53:47.842Z,40.33
2018-02-20T15:56:15.407Z,31.55
2018-02-20T15:58:42.964Z,35.40
2018-02-20T16:01:11.225Z,37.20
2018-02-20T16:03:40.936Z,36.13
2018-02-20T16:06:09.375Z,38.95
2018-02-20T16:08:37.683Z,34.20
2018-02-20T16:11:05.369Z,38.10
2018-02-20T16:13:35.683Z,39.75
2018-02-20T16:16:15.117Z,36.50
2018-02-20T16:18:43.441Z,38.45
2018-02-20T16:21:11.121Z,43.67
2018-02-20T16:23:39.539Z,43.08
2018-02-20T16:26:07.146Z,42.80
2018-02-20T16:28:34.835Z,44.85
2018-02-20T16:31:02.866Z,40.15
2018-02-20T16:33:30.429Z,46.78
2018-02-20T16:35:57.973Z,42.30
2018-02-20T16:38:25.489Z,51.72
2018-02-20T16:40:54.082Z,52.13
2018-02-20T16:43:23.619Z,49.47
2018-02-20T16:45:51.210Z,47.22
2018-02-20T16:48:18.783Z,44.28
2018-02-20T16:50:46.489Z,45.00
2018-02-20T16:53:15.698Z,47.30
2018-02-20T16:55:43.221Z,44.63
2018-02-20T16:58:11.521Z,54.58
2018-02-20T17:00:39.955Z,45.70
2018-02-20T17:03:08.160Z,45.75
2018-02-20T17:05:35.873Z,52.50
2018-02-20T17:08:04.346Z,49.20
2018-02-20T17:10:32.659Z,47.15
2018-02-20T17:13:00.290Z,53.87
2018-02-20T17:15:28.674Z,50.17
2018-02-20T17:17:57.138Z,53.35
2018-02-20T17:20:25.562Z,50.85
2018-02-20T17:22:53.221Z,47.40
2018-02-20T17:25:20.877Z,50.12
2018-02-20T17:27:48.465Z,50.58
2018-02-20T17:30:16.098Z,49.88
2018-02-20T17:32:43.713Z,53.83
2018-02-20T17:35:11.413Z,57.08
2018-02-20T17:37:38.990Z,49.47
2018-02-20T17:40:06.879Z,52.85
2018-02-20T17:42:34.590Z,57.72
2018-02-20T17:45:02.953Z,57.00
2018-02-20T17:47:30.735Z,56.33
2018-02-20T17:49:58.383Z,49.90
2018-02-20T17:52:26.468Z,50.10
2018-02-20T17:54:54.830Z,56.40
2018-02-20T17:57:22.432Z,64.15
2018-02-20T17:59:50.089Z,52.80
2018-02-20T18:02:17.630Z,65.07
2018-02-20T18:04:45.259Z,61.25
2018-02-20T18:07:12.852Z,52.22
2018-02-20T18:09:41.250Z,56.25
2018-02-20T18:12:08.860Z,55.72
2018-02-20T18:14:36.500Z,63.47
2018-02-20T18:17:04.131Z,61.95
2018-02-20T18:19:31.745Z,57.97
2018-02-20T18:21:59.318Z,60.65
2018-02-20T18:24:26.914Z,54.92
2018-02-20T18:26:54.768Z,60.75
2018-02-20T18:29:22.336Z,53.42
2018-02-20T18:31:49.948Z,62.55
2018-02-20T18:34:17.535Z,65.18
2018-02-20T18:36:45.870Z,61.13
2018-02-20T18:39:13.468Z,61.37
2018-02-20T18:41:41.825Z,60.83
2018-02-20T18:44:09.378Z,51.58
2018-02-20T18:46:36.968Z,65.53
2018-02-20T18:49:04.556Z,63.35
2018-02-20T18:51:32.175Z,56.37
2018-02-20T18:53:59.850Z,55.72
2018-02-20T18:56:27.597Z,61.78
2018-02-20T18:58:55.440Z,59.70
2018-02-20T19:01:24.692Z,60.83
2018-02-20T19:03:53.088Z,65.65
2018-02-20T19:06:20.667Z,63.63
2018-02-20T19:08:48.221Z,63.92
2018-02-20T19:11:16.572Z,57.38
2018-02-20T19:13:44.123Z,59.75
2018-02-20T19:16:11.686Z,67.07
2018-02-20T19:18:39.263Z,63.10
2018-02-20T19:21:06.847Z,69.47
2018-02-20T19:23:34.432Z,58.38
2018-02-20T19:26:01.978Z,67.82
2018-02-20T19:28:29.536Z,62.15
2018-02-20T19:30:57.117Z,64.15
2018-02-20T19:33:25.529Z,69.10
2018-02-20T19:35:53.103Z,78.85
2018-02-20T19:38:20.674Z,60.50
2018-02-20T19:40:48.276Z,79.60
2018-02-20T19:43:15.814Z,70.05
2018-02-20T19:45:44.254Z,77.30
2018-02-20T19:48:12.636Z,67.37
2018-02-20T19:50:40.232Z,71.18
2018-02-20T19:53:07.751Z,68.53
2018-02-20T19:55:35.294Z,61.63
2018-02-20T19:58:04.436Z,64.87
2018-02-20T20:00:32.022Z,73.43
2018-02-20T20:02:59.631Z,70.22
2018-02-20T20:05:27.191Z,76.80
2018-02-20T20:07:55.589Z,72.70
2018-02-20T20:10:23.901Z,61.95
2018-02-20T20:12:51.548Z,65.68
2018-02-20T20:15:19.081Z,71.65
2018-02-20T20:17:47.420Z,72.32
2018-02-20T20:20:14.989Z,70.82
2018-02-20T20:22:42.609Z,70.75
2018-02-20T20:25:10.288Z,63.35
2018-02-20T20:27:37.849Z,66.15
2018-02-20T20:30:06.384Z,63.65
2018-02-20T20:32:33.931Z,75.00
2018-02-20T20:35:01.490Z,71.28
2018-02-20T20:37:29.050Z,68.68
2018-02-20T20:39:56.652Z,74.57
2018-02-20T20:42:24.231Z,72.57
2018-02-20T20:44:51.807Z,74.78
2018-02-20T20:47:22.050Z,78.47
2018-02-20T20:49:50.632Z,72.30
2018-02-20T20:52:19.058Z,82.68
2018-02-20T20:54:47.613Z,78.62
2018-02-20T20:57:15.147Z,80.95
2018-02-20T20:59:42.751Z,70.97
2018-02-20T21:02:11.107Z,72.75
2018-02-20T21:04:38.720Z,80.95
2018-02-20T21:07:07.148Z,73.47
2018-02-20T21:09:34.703Z,77.60
2018-02-20T21:12:02.352Z,66.05
2018-02-20T21:14:30.135Z,74.22
2018-02-20T21:16:57.678Z,72.20
2018-02-20T21:19:25.257Z,83.07
2018-02-20T21:21:52.864Z,72.97
2018-02-20T21:24:21.270Z,75.30
2018-02-20T21:26:48.849Z,73.90
2018-02-20T21:29:16.458Z,80.38
2018-02-20T21:31:44.789Z,73.32
2018-02-20T21:34:12.438Z,72.32
2018-02-20T21:36:40.023Z,78.72
2018-02-20T21:39:08.466Z,93.07
2018-02-20T21:41:36.019Z,74.60
2018-02-20T21:44:03.640Z,85.10
2018-02-20T21:46:31.342Z,77.72
2018-02-20T21:48:58.954Z,77.97
2018-02-20T21:51:26.570Z,77.30
2018-02-20T21:53:55.200Z,78.82
2018-02-20T21:56:23.604Z,79.95
2018-02-20T21:58:51.210Z,76.22
2018-02-20T22:01:18.777Z,81.70
2018-02-20T22:03:46.385Z,79.65
2018-02-20T22:06:14.950Z,77.82
2018-02-20T22:08:42.541Z,86.95
2018-02-20T22:11:10.148Z,77.82
2018-02-20T22:13:38.039Z,81.80
2018-02-20T22:16:05.650Z,75.93
2018-02-20T22:18:33.228Z,84.25
2018-02-20T22:21:00.786Z,93.00
2018-02-20T22:23:28.314Z,81.68
2018-02-20T22:25:55.934Z,81.47
2018-02-20T22:28:24.246Z,80.05
2018-02-20T22:30:51.874Z,80.45
2018-02-20T22:33:20.252Z,75.28
2018-02-20T22:35:48.601Z,90.38
2018-02-20T22:38:16.163Z,76.72
2018-02-20T22:40:43.751Z,86.95
2018-02-20T22:43:11.388Z,77.68
2018-02-20T22:45:39.007Z,87.03
2018-02-20T22:48:06.625Z,75.32
2018-02-20T22:50:35.003Z,79.37
2018-02-20T22:53:03.340Z,87.30
2018-02-20T22:55:30.921Z,84.87
2018-02-20T22:58:00.352Z,82.88
2018-02-20T23:00:27.924Z,85.72
2018-02-20T23:02:57.305Z,81.05
2018-02-20T23:05:24.968Z,72.95
2018-02-20T23:07:53.170Z,81.43
2018-02-20T23:10:20.911Z,75.30
2018-02-20T23:12:49.403Z,99.55
2018-02-20T23:15:16.965Z,82.95
2018-02-20T23:17:45.225Z,89.13
2018-02-20T23:20:13.080Z,90.22
2018-02-20T23:22:41.398Z,86.12
2018-02-20T23:25:09.774Z,91.35
2018-02-20T23:27:37.807Z,82.07
2018-02-20T23:30:05.389Z,103.00
2018-02-20T23:32:32.996Z,91.15
2018-02-20T23:35:00.544Z,93.05
2018-02-20T23:37:28.157Z,78.05
2018-02-20T23:39:55.720Z,97.05
2018-02-20T23:42:23.296Z,83.95
2018-02-20T23:44:50.893Z,88.60
2018-02-20T23:47:18.499Z,92.03
2018-02-20T23:49:46.654Z,97.05
2018-02-20T23:52:14.284Z,83.37
2018-02-20T23:54:41.893Z,90.82
2018-02-20T23:57:09.793Z,89.75
2018-02-20T23:59:38.182Z,103.62
